< Typhoon 198620 1986 Season Typhoon 198622 >
Typhoon 198621 (FORREST)
General InformationTrack Information on Google MapsDetailed Wind InformationList of All Images || Disaster Info.ResourceGoogle EarthGE AnimationAtom FeedGeoJSON
Detalied Best Track (Time Zone = UTC)
Year Month Day Hour Lat. Long. Pressure (hPa) Wind (kt) Class Image Chart
1986 10 13 06 11.0 167.0 1008 0 2 Image Chart
1986 10 13 12 11.5 166.0 1008 0 2 Image Chart
1986 10 13 18 11.5 165.0 1006 0 2 Image Chart
1986 10 14 00 12.0 163.5 1004 0 2 Image Chart
1986 10 14 06 12.3 162.0 1002 0 2 Image Chart
1986 10 14 12 12.7 160.7 1002 0 2 Image Chart
1986 10 14 18 13.2 159.4 1002 0 2 Image Chart
1986 10 15 00 13.6 158.2 1000 0 2 Image Chart
1986 10 15 06 14.8 157.2 996 40 3 Image Chart
1986 10 15 12 15.2 155.5 994 40 3 Image Chart
1986 10 15 18 15.6 153.7 990 45 3 Image Chart
1986 10 16 00 16.3 151.9 985 50 4 Image Chart
1986 10 16 06 16.9 150.0 980 55 4 Image Chart
1986 10 16 12 17.6 148.0 975 65 5 Image Chart
1986 10 16 18 18.3 146.6 960 70 5 Image Chart
1986 10 17 00 18.7 145.3 940 85 5 Image Chart
1986 10 17 06 19.2 144.3 930 85 5 Image Chart
1986 10 17 12 20.0 143.3 935 90 5 Image Chart
1986 10 17 18 20.6 142.7 955 85 5 Image Chart
1986 10 18 00 21.1 142.2 960 75 5 Image Chart
1986 10 18 06 21.6 142.2 960 75 5 Image Chart
1986 10 18 12 22.1 142.2 960 75 5 Image Chart
1986 10 18 18 22.7 142.6 960 75 5 Image Chart
1986 10 19 00 23.4 143.2 965 75 5 Image Chart
1986 10 19 06 24.4 144.6 970 70 5 Image Chart
1986 10 19 12 25.5 146.2 975 70 5 Image Chart
1986 10 19 18 28.0 149.4 980 60 4 Image Chart
1986 10 20 00 31.0 153.0 985 60 4 Image Chart
1986 10 20 06 33.0 156.0 992 0 6 Image Chart
1986 10 20 12 34.0 158.0 1004 0 6 Image Chart
1986 10 20 18 35.0 160.0 1006 0 6 Image Chart
1986 10 21 00 35.0 161.0 1012 0 6 Image Chart
1986 10 21 06 36.0 163.0 1012 0 6 Image Chart
1986 10 21 12 36.0 165.0 1012 0 6 Image Chart
1986 10 21 18 36.0 167.0 1012 0 6 Image Chart
1986 10 22 00 35.0 169.0 1012 0 6 Image Chart
1986 10 22 06 35.0 171.0 1012 0 6 Image Chart
1986 10 22 12 35.0 173.0 1012 0 6 Image Chart
1986 10 22 18 34.7 175.3 1014 0 6 Image Chart
1986 10 23 00 34.0 177.4 1016 0 6 Image Chart
1986 10 23 06 33.1 179.3 1016 0 6 Image Chart
Japan Meteorological Agency Best Track Data | Correction Date : 1992-10-21
< Typhoon 198620 1986 Season Typhoon 198622 >

Help